Time;durP1;ratioP1;P1;durP2;ratioP2;P2;SDS_P1;SDS_P2;PMS_P1;PMS_P2;Temp;Humidity;BMP_temperature;BMP_pressure;BME280_temperature;BME280_humidity;BME280_pressure;Samples;Min_cycle;Max_cycle;Signal;HPM_P1;HPM_P2
2023/06/04 00:01:22;;;;;;;0.00;0.00;;;;;;;15.52;53.16;102333.63;5093281;28;20025;-77
2023/06/04 00:03:48;;;;;;;0.05;0.05;;;;;;;15.47;53.37;102341.69;5095418;28;20032;-78
2023/06/04 00:06:14;;;;;;;0.10;0.10;;;;;;;15.44;53.87;102344.44;5097668;28;20051;-80
2023/06/04 00:08:40;;;;;;;0.10;0.10;;;;;;;15.41;53.63;102343.59;5091340;28;20440;-79
2023/06/04 00:11:06;;;;;;;0.05;0.05;;;;;;;15.37;53.14;102346.31;5084734;28;20028;-79
2023/06/04 00:13:32;;;;;;;0.00;0.00;;;;;;;15.34;54.44;102350.84;5086226;28;20498;-79
2023/06/04 00:15:58;;;;;;;0.00;0.00;;;;;;;15.31;54.80;102341.06;5089043;28;20040;-77
2023/06/04 00:18:25;;;;;;;0.73;0.73;;;;;;;15.29;54.33;102342.00;5089361;28;20025;-79
2023/06/04 00:20:51;;;;;;;0.10;0.10;;;;;;;15.27;54.99;102349.16;5090072;28;20591;-79
2023/06/04 00:23:17;;;;;;;0.00;0.00;;;;;;;15.24;54.59;102346.53;5090533;28;20024;-79
2023/06/04 00:25:43;;;;;;;1.45;0.98;;;;;;;15.20;54.24;102343.03;5092888;28;20055;-78
2023/06/04 00:28:10;;;;;;;0.10;0.10;;;;;;;15.16;54.68;102346.66;5088988;28;20028;-77
2023/06/04 00:30:36;;;;;;;0.10;0.10;;;;;;;15.11;54.89;102338.72;5090682;28;20046;-77
2023/06/04 00:33:02;;;;;;;0.10;0.10;;;;;;;15.08;54.66;102333.44;5084000;28;20028;-78
2023/06/04 00:35:28;;;;;;;0.05;0.05;;;;;;;15.06;54.60;102340.56;5085655;28;20034;-78
2023/06/04 00:37:54;;;;;;;0.00;0.00;;;;;;;15.04;53.82;102342.38;5090891;28;20087;-78
2023/06/04 00:40:20;;;;;;;0.00;0.00;;;;;;;15.02;54.41;102339.72;5087068;28;20048;-78
2023/06/04 00:42:47;;;;;;;0.10;0.10;;;;;;;14.99;55.01;102344.22;5089122;28;20796;-78
2023/06/04 00:45:13;;;;;;;0.10;0.10;;;;;;;14.95;55.45;102347.84;5085388;28;20035;-78
2023/06/04 00:47:40;;;;;;;0.10;0.10;;;;;;;14.92;54.30;102345.25;5091713;28;20028;-78
2023/06/04 00:50:07;;;;;;;0.10;0.10;;;;;;;14.88;54.16;102339.06;5092864;28;20019;-77
2023/06/04 00:52:34;;;;;;;0.10;0.10;;;;;;;14.84;55.60;102343.56;5093992;28;20047;-78
2023/06/04 00:55:02;;;;;;;0.10;0.10;;;;;;;14.81;55.32;102346.25;5089213;28;20020;-78
2023/06/04 00:57:28;;;;;;;0.00;0.00;;;;;;;14.78;55.00;102351.66;5097670;28;20040;-78
2023/06/04 00:59:54;;;;;;;0.10;0.10;;;;;;;14.76;55.82;102349.91;5105302;28;20047;-78
2023/06/04 01:02:24;;;;;;;0.10;0.10;;;;;;;14.75;54.97;102350.81;5105286;28;20064;-78
2023/06/04 01:07:33;;;;;;;0.00;0.00;;;;;;;14.69;54.99;102349.09;5125432;27;20377;-81
2023/06/04 01:10:00;;;;;;;0.00;0.00;;;;;;;14.66;55.33;102349.13;5125191;27;20043;-78
2023/06/04 01:12:26;;;;;;;0.10;0.10;;;;;;;14.64;55.45;102350.91;5107979;28;20047;-77
2023/06/04 01:14:52;;;;;;;0.03;0.03;;;;;;;14.60;55.99;102347.38;5120022;28;20032;-78
2023/06/04 01:17:41;;;;;;;0.10;0.10;;;;;;;14.64;54.95;102353.56;5117932;28;20024;-78
2023/06/04 01:20:39;;;;;;;0.10;0.10;;;;;;;14.60;54.69;102351.84;5118470;28;20027;-78
2023/06/04 01:23:33;;;;;;;0.00;0.00;;;;;;;14.58;55.42;102354.53;5115496;28;20543;-78
2023/06/04 01:26:02;;;;;;;0.00;0.00;;;;;;;14.49;55.81;102349.31;5114637;28;20389;-77
2023/06/04 01:28:30;;;;;;;0.10;0.10;;;;;;;14.46;55.97;102354.69;5116156;28;20447;-78
2023/06/04 01:30:57;;;;;;;0.00;0.00;;;;;;;14.44;56.17;102361.81;5118197;28;20023;-78
2023/06/04 01:33:23;;;;;;;0.10;0.10;;;;;;;14.42;55.96;102356.50;5118811;28;20416;-77
2023/06/04 01:35:50;;;;;;;0.10;0.10;;;;;;;14.39;56.20;102357.44;5118492;28;20439;-79
2023/06/04 01:38:16;;;;;;;0.00;0.00;;;;;;;14.38;56.03;102352.09;5121377;28;20043;-77
2023/06/04 01:40:42;;;;;;;2.30;2.20;;;;;;;14.34;55.81;102361.94;5114793;27;20027;-78
2023/06/04 01:43:09;;;;;;;0.10;0.10;;;;;;;14.32;55.99;102346.88;5120658;28;20040;-79
2023/06/04 01:45:36;;;;;;;0.10;0.10;;;;;;;14.31;55.53;102350.41;5121621;28;20490;-77
2023/06/04 01:48:03;;;;;;;0.10;0.10;;;;;;;14.29;56.01;102352.22;5118237;28;20059;-79
2023/06/04 01:50:30;;;;;;;0.00;0.00;;;;;;;14.23;56.60;102353.16;5114392;28;20029;-77
2023/06/04 01:52:57;;;;;;;0.10;0.10;;;;;;;14.26;55.51;102352.25;5113418;28;20028;-78
2023/06/04 01:55:25;;;;;;;0.10;0.10;;;;;;;14.23;55.71;102351.38;5104752;28;20430;-77
2023/06/04 01:57:51;;;;;;;0.10;0.10;;;;;;;14.22;55.73;102354.94;5100682;28;20092;-77
2023/06/04 02:00:18;;;;;;;0.00;0.00;;;;;;;14.21;55.75;102350.50;5108501;28;20024;-79
2023/06/04 02:02:47;;;;;;;0.00;0.00;;;;;;;14.20;55.47;102348.72;5113660;28;20028;-80
2023/06/04 02:05:14;;;;;;;0.00;0.00;;;;;;;14.19;55.38;102351.44;5120918;28;20045;-78
2023/06/04 02:07:44;;;;;;;0.10;0.10;;;;;;;14.16;55.63;102352.34;5113790;28;20036;-78
2023/06/04 02:10:12;;;;;;;0.10;0.10;;;;;;;14.14;55.82;102351.47;5115334;28;20020;-79
2023/06/04 02:12:41;;;;;;;0.10;0.10;;;;;;;14.15;55.39;102345.25;5113384;28;20051;-79
2023/06/04 02:15:10;;;;;;;0.10;0.10;;;;;;;14.14;55.29;102354.13;5117657;28;20093;-78
2023/06/04 02:17:39;;;;;;;0.10;0.10;;;;;;;14.11;55.30;102347.97;5110224;28;20043;-78
2023/06/04 02:20:09;;;;;;;0.10;0.10;;;;;;;14.09;55.63;102347.97;5099829;28;20035;-77
2023/06/04 02:22:35;;;;;;;0.10;0.10;;;;;;;14.05;56.13;102346.25;5098481;28;20044;-77
2023/06/04 02:25:02;;;;;;;0.10;0.10;;;;;;;14.03;56.10;102340.03;5095051;28;20060;-79
2023/06/04 02:27:28;;;;;;;0.00;0.00;;;;;;;14.01;56.25;102348.06;5104670;28;20024;-78
2023/06/04 02:29:54;;;;;;;0.00;0.00;;;;;;;13.99;55.92;102343.66;5109221;28;20034;-78
2023/06/04 02:32:20;;;;;;;0.00;0.00;;;;;;;13.96;55.70;102343.69;5094603;28;20080;-78
2023/06/04 02:34:46;;;;;;;0.00;0.00;;;;;;;13.93;56.21;102339.25;5092203;28;20036;-79
2023/06/04 02:37:13;;;;;;;0.10;0.10;;;;;;;13.88;56.30;102344.66;5091171;28;20043;-77
2023/06/04 02:39:39;;;;;;;0.10;0.10;;;;;;;13.89;56.26;102348.19;5096738;28;20039;-78
2023/06/04 02:42:05;;;;;;;0.10;0.10;;;;;;;13.88;55.92;102354.41;5090180;28;20028;-79
2023/06/04 02:44:32;;;;;;;0.10;0.10;;;;;;;13.87;55.93;102353.53;5096473;28;20032;-77
2023/06/04 02:46:58;;;;;;;0.08;0.08;;;;;;;13.84;55.92;102353.53;5092567;28;20025;-77
2023/06/04 02:49:24;;;;;;;0.15;0.15;;;;;;;13.83;56.95;102354.47;5089488;28;20039;-78
2023/06/04 02:51:51;;;;;;;0.00;0.00;;;;;;;13.81;56.63;102356.25;5088360;28;20033;-78
2023/06/04 02:54:17;;;;;;;0.10;0.10;;;;;;;13.78;56.69;102353.59;5090049;28;20059;-77
2023/06/04 02:56:44;;;;;;;0.00;0.00;;;;;;;13.78;55.93;102350.06;5091163;28;20032;-77
2023/06/04 02:59:10;;;;;;;0.03;0.03;;;;;;;13.75;56.81;102348.31;5091003;28;20032;-78
2023/06/04 03:01:36;;;;;;;0.10;0.10;;;;;;;13.72;56.66;102348.31;5094333;28;20029;-78
2023/06/04 03:04:04;;;;;;;0.00;0.00;;;;;;;13.67;56.85;102350.16;5091320;28;20040;-78
2023/06/04 03:06:33;;;;;;;0.08;0.08;;;;;;;13.66;56.52;102349.28;5095231;28;20088;-76
2023/06/04 03:08:59;;;;;;;0.10;0.10;;;;;;;13.63;55.84;102345.75;5100312;28;20477;-76
2023/06/04 03:11:27;;;;;;;0.10;0.10;;;;;;;13.62;56.92;102349.31;5092936;28;20032;-77
2023/06/04 03:13:53;;;;;;;0.05;0.05;;;;;;;13.62;56.37;102349.31;5093256;28;20088;-79
2023/06/04 03:16:20;;;;;;;0.00;0.00;;;;;;;13.58;56.63;102344.03;5099007;28;20029;-76
2023/06/04 03:18:46;;;;;;;0.00;0.00;;;;;;;13.56;57.01;102348.47;5094090;28;20291;-76
2023/06/04 03:21:13;;;;;;;0.00;0.00;;;;;;;13.54;56.86;102346.72;5098364;28;20040;-77
2023/06/04 03:23:39;;;;;;;0.10;0.10;;;;;;;13.53;56.91;102348.53;5090694;28;20028;-76
2023/06/04 03:26:06;;;;;;;0.10;0.10;;;;;;;13.52;56.52;102346.75;5093330;28;20056;-77
2023/06/04 03:28:33;;;;;;;0.00;0.00;;;;;;;13.50;56.75;102345.00;5090612;28;20104;-77
2023/06/04 03:30:59;;;;;;;0.00;0.00;;;;;;;13.49;57.02;102354.75;5090416;28;20102;-78
2023/06/04 03:33:25;;;;;;;0.00;0.00;;;;;;;13.47;56.44;102345.91;5091493;28;20040;-77
2023/06/04 03:35:52;;;;;;;0.00;0.00;;;;;;;13.45;56.80;102355.66;5095731;28;20036;-75
2023/06/04 03:38:19;;;;;;;0.10;0.10;;;;;;;13.44;56.56;102351.22;5091201;28;20043;-77
2023/06/04 03:40:46;;;;;;;0.10;0.10;;;;;;;13.45;56.83;102352.13;5090607;28;20032;-77
2023/06/04 03:43:12;;;;;;;0.05;0.05;;;;;;;13.45;56.54;102353.00;5091945;28;20051;-79
2023/06/04 03:45:38;;;;;;;0.10;0.10;;;;;;;13.45;56.84;102352.13;5104166;28;20042;-78
2023/06/04 03:48:07;;;;;;;0.08;0.08;;;;;;;13.43;57.43;102349.47;5100271;28;20043;-79
2023/06/04 03:50:35;;;;;;;0.00;0.00;;;;;;;13.41;56.67;102354.81;5103473;28;20078;-77
2023/06/04 03:53:01;;;;;;;0.10;0.10;;;;;;;13.39;57.49;102353.94;5105763;28;20032;-77
2023/06/04 03:55:27;;;;;;;0.10;0.10;;;;;;;13.41;56.77;102361.94;5107953;28;20099;-77
2023/06/04 03:57:53;;;;;;;0.00;0.00;;;;;;;13.41;56.90;102348.63;5102432;28;20095;-78
2023/06/04 04:00:20;;;;;;;0.10;0.10;;;;;;;13.43;56.08;102355.69;5103497;28;20032;-78
2023/06/04 04:02:46;;;;;;;0.00;0.00;;;;;;;13.45;56.84;102362.78;5105170;28;20028;-77
2023/06/04 04:05:12;;;;;;;0.10;0.10;;;;;;;13.46;56.27;102360.09;5095285;28;20460;-76
2023/06/04 04:07:38;;;;;;;0.00;0.00;;;;;;;13.45;56.57;102358.34;5101580;28;20040;-79
2023/06/04 04:10:05;;;;;;;0.10;0.10;;;;;;;13.46;56.01;102360.09;5098139;28;20024;-77
2023/06/04 04:12:31;;;;;;;0.10;0.10;;;;;;;13.46;56.56;102362.78;5098537;28;20059;-77
2023/06/04 04:14:58;;;;;;;0.20;0.20;;;;;;;13.44;56.71;102356.56;5106154;28;20028;-77
2023/06/04 04:17:25;;;;;;;0.00;0.00;;;;;;;13.47;57.19;102360.97;5106852;28;20090;-78
2023/06/04 04:19:51;;;;;;;0.05;0.05;;;;;;;13.48;57.22;102355.63;5109474;28;20066;-79
2023/06/04 04:22:17;;;;;;;0.00;0.00;;;;;;;13.44;57.16;102356.56;5100886;28;20039;-77
2023/06/04 04:24:44;;;;;;;0.10;0.10;;;;;;;13.51;57.15;102360.94;5097836;28;20028;-77
2023/06/04 04:27:11;;;;;;;0.10;0.10;;;;;;;13.53;57.03;102358.25;5095355;28;20020;-77
2023/06/04 04:29:39;;;;;;;0.10;0.10;;;;;;;13.54;57.27;102357.38;5108548;28;20091;-77
2023/06/04 04:32:10;;;;;;;0.10;0.10;;;;;;;13.55;57.15;102354.69;5107379;28;20046;-78
2023/06/04 04:34:39;;;;;;;0.10;0.10;;;;;;;13.57;57.12;102352.91;5104001;28;20126;-77
2023/06/04 04:37:08;;;;;;;0.10;0.10;;;;;;;13.62;57.42;102351.97;5106016;28;20048;-79
2023/06/04 04:39:35;;;;;;;0.10;0.10;;;;;;;13.61;57.42;102359.09;5097761;28;20032;-76
2023/06/04 04:42:02;;;;;;;0.00;0.00;;;;;;;13.64;56.93;102355.53;5097890;28;20020;-77
2023/06/04 04:44:28;;;;;;;0.10;0.10;;;;;;;13.66;57.12;102357.28;5103695;28;20401;-77
2023/06/04 04:46:54;;;;;;;0.00;0.00;;;;;;;13.68;57.27;102355.50;5093064;28;20039;-77
2023/06/04 04:49:20;;;;;;;0.10;0.10;;;;;;;13.72;56.98;102358.97;5089456;28;20047;-77
2023/06/04 04:51:47;;;;;;;0.10;0.10;;;;;;;13.74;57.18;102350.13;5093197;28;20044;-76
2023/06/04 04:54:13;;;;;;;0.00;0.00;;;;;;;13.77;57.45;102356.28;5108890;28;20113;-78
2023/06/04 04:56:39;;;;;;;0.05;0.05;;;;;;;13.81;56.53;102356.25;5094890;28;20128;-77
2023/06/04 04:59:06;;;;;;;0.00;0.00;;;;;;;13.87;56.21;102345.53;5094815;28;20059;-78
2023/06/04 05:01:32;;;;;;;0.00;0.00;;;;;;;13.88;57.54;102347.31;5110956;28;20548;-77
2023/06/04 05:03:58;;;;;;;0.20;0.20;;;;;;;13.92;57.11;102345.50;5100268;28;20028;-77
2023/06/04 05:06:24;;;;;;;0.10;0.10;;;;;;;13.96;56.74;102352.56;5094689;28;20033;-78
2023/06/04 05:08:50;;;;;;;0.10;0.10;;;;;;;14.00;57.06;102362.28;5088101;28;20036;-76
2023/06/04 05:11:16;;;;;;;0.00;0.00;;;;;;;14.06;57.09;102356.00;5091722;28;20067;-77
2023/06/04 05:13:42;;;;;;;0.00;0.00;;;;;;;14.11;56.34;102359.50;5089540;28;20029;-76
2023/06/04 05:16:11;;;;;;;0.10;0.10;;;;;;;14.12;56.74;102361.28;5093437;28;20028;-78
2023/06/04 05:18:41;;;;;;;0.00;0.00;;;;;;;14.16;56.66;102363.00;5087288;28;20029;-79
2023/06/04 05:21:07;;;;;;;0.10;0.10;;;;;;;14.20;56.22;102354.06;5087581;28;20103;-78
2023/06/04 05:23:34;;;;;;;0.00;0.00;;;;;;;14.24;56.67;102357.59;5089646;28;20037;-78
2023/06/04 05:26:01;;;;;;;0.10;0.10;;;;;;;14.27;57.46;102375.31;5089031;28;20424;-77
2023/06/04 05:28:27;;;;;;;0.03;0.03;;;;;;;14.31;57.20;102364.63;5100564;28;20095;-78
2023/06/04 05:30:58;;;;;;;0.10;0.10;;;;;;;14.36;56.72;102365.44;5093632;28;20032;-78
2023/06/04 05:33:26;;;;;;;0.00;0.00;;;;;;;14.42;55.95;102369.84;5097537;28;20028;-77
2023/06/04 05:35:53;;;;;;;0.00;0.00;;;;;;;14.46;56.09;102366.22;5103003;28;20369;-76
2023/06/04 05:38:20;;;;;;;0.10;0.10;;;;;;;14.52;55.82;102365.28;5101727;28;20009;-77
2023/06/04 05:40:47;;;;;;;0.05;0.05;;;;;;;14.56;56.52;102370.53;5104030;28;20067;-80
2023/06/04 05:43:13;;;;;;;0.10;0.10;;;;;;;14.59;56.45;102366.94;5091587;28;20037;-77
2023/06/04 05:45:39;;;;;;;0.10;0.10;;;;;;;14.67;55.71;102364.25;5100499;28;20028;-77
2023/06/04 05:48:06;;;;;;;0.10;0.10;;;;;;;14.73;56.09;102364.16;5090981;28;20055;-77
2023/06/04 05:50:32;;;;;;;0.10;0.10;;;;;;;14.76;55.59;102364.13;5094805;28;20012;-78
2023/06/04 05:52:58;;;;;;;0.30;0.30;;;;;;;14.85;55.48;102366.69;5097724;28;20783;-79
2023/06/04 05:55:24;;;;;;;0.10;0.10;;;;;;;14.92;55.21;102371.94;5094508;28;20024;-78
2023/06/04 05:57:51;;;;;;;1.30;1.20;;;;;;;14.97;55.33;102368.28;5093648;28;20047;-78
2023/06/04 06:00:18;;;;;;;0.10;0.10;;;;;;;15.04;55.65;102369.97;5102874;28;20012;-76
2023/06/04 06:02:45;;;;;;;0.00;0.00;;;;;;;15.11;54.94;102370.75;5107718;28;20039;-78
2023/06/04 06:05:11;;;;;;;0.00;0.00;;;;;;;15.16;54.77;102368.00;5097418;28;20027;-77
2023/06/04 06:07:37;;;;;;;0.10;0.10;;;;;;;15.17;54.53;102365.31;5107731;28;20035;-76
2023/06/04 06:10:04;;;;;;;0.10;0.10;;;;;;;15.29;54.81;102371.38;5095855;28;20041;-77
2023/06/04 06:12:31;;;;;;;0.10;0.10;;;;;;;15.35;54.69;102376.63;5093405;28;20032;-79
2023/06/04 06:14:57;;;;;;;0.10;0.10;;;;;;;15.42;54.87;102372.94;5091262;28;20025;-77
2023/06/04 06:17:23;;;;;;;0.65;0.52;;;;;;;15.48;54.31;102375.53;5107493;28;20017;-77
2023/06/04 06:19:50;;;;;;;0.03;0.03;;;;;;;15.56;53.99;102374.53;5097374;28;20036;-77
2023/06/04 06:22:16;;;;;;;0.22;0.22;;;;;;;15.60;54.12;102371.78;5097198;28;20048;-77
2023/06/04 06:24:42;;;;;;;0.00;0.00;;;;;;;15.64;53.84;102375.28;5104215;28;20045;-77
2023/06/04 06:27:10;;;;;;;0.00;0.00;;;;;;;15.71;53.89;102371.59;5095131;28;20019;-76
2023/06/04 06:29:36;;;;;;;0.38;0.38;;;;;;;15.76;53.69;102372.38;5093158;28;20129;-77
2023/06/04 06:32:03;;;;;;;0.08;0.08;;;;;;;15.83;53.86;102375.88;5091270;28;20044;-77
2023/06/04 06:34:29;;;;;;;0.13;0.13;;;;;;;15.89;54.10;102380.22;5093064;28;20043;-77
2023/06/04 06:36:59;;;;;;;0.00;0.00;;;;;;;15.95;53.38;102380.09;5094902;28;20024;-76
2023/06/04 06:39:25;;;;;;;0.10;0.10;;;;;;;16.03;53.54;102383.53;5093474;28;20009;-78
2023/06/04 06:41:51;;;;;;;1.17;0.50;;;;;;;16.08;53.55;102387.00;5101293;28;20024;-78
2023/06/04 06:44:17;;;;;;;0.08;0.08;;;;;;;16.16;52.84;102385.09;5092610;28;20028;-78
2023/06/04 06:46:44;;;;;;;0.10;0.10;;;;;;;16.22;53.14;102383.19;5096205;28;20029;-77
2023/06/04 06:49:10;;;;;;;0.08;0.08;;;;;;;16.31;52.90;102385.69;5091193;28;20040;-78
2023/06/04 06:51:36;;;;;;;0.00;0.00;;;;;;;16.41;52.88;102384.63;5089749;28;20036;-77
2023/06/04 06:54:02;;;;;;;0.03;0.03;;;;;;;16.48;52.32;102385.34;5088281;28;20062;-77
2023/06/04 06:56:30;;;;;;;0.10;0.10;;;;;;;16.54;51.52;102387.03;5092589;28;20028;-79
2023/06/04 06:58:56;;;;;;;0.22;0.22;;;;;;;16.65;52.00;102388.56;5100137;28;20070;-77
2023/06/04 07:01:22;;;;;;;0.00;0.00;;;;;;;16.76;51.58;102391.03;5090709;28;20413;-77
2023/06/04 07:03:48;;;;;;;0.00;0.00;;;;;;;16.84;51.36;102382.81;5088704;28;20032;-78
2023/06/04 07:06:15;;;;;;;0.10;0.10;;;;;;;16.82;49.98;102384.66;5090327;28;20028;-78
2023/06/04 07:08:42;;;;;;;0.03;0.03;;;;;;;16.99;50.75;102392.34;5106141;28;20028;-77
2023/06/04 07:11:11;;;;;;;0.10;0.10;;;;;;;17.08;50.32;102380.53;5106276;28;20035;-78
2023/06/04 07:13:38;;;;;;;0.00;0.00;;;;;;;17.16;50.08;102388.41;5092322;28;20048;-80
2023/06/04 07:16:04;;;;;;;0.00;0.00;;;;;;;17.22;49.70;102385.56;5095132;28;20019;-77
2023/06/04 07:18:30;;;;;;;0.00;0.00;;;;;;;17.27;48.95;102384.56;5095640;28;20091;-78
2023/06/04 07:20:57;;;;;;;0.08;0.08;;;;;;;17.38;49.30;102394.16;5092544;28;20056;-79
2023/06/04 07:23:23;;;;;;;0.00;0.00;;;;;;;17.51;49.64;102394.72;5093301;28;20062;-78
2023/06/04 07:25:50;;;;;;;0.00;0.00;;;;;;;17.59;48.82;102385.56;5089160;28;20032;-78
2023/06/04 07:28:16;;;;;;;0.05;0.05;;;;;;;17.71;48.65;102388.88;5091135;28;20048;-79
2023/06/04 07:30:44;;;;;;;0.00;0.00;;;;;;;17.79;48.51;102390.44;5093799;28;20486;-78
2023/06/04 07:33:10;;;;;;;0.10;0.10;;;;;;;17.92;48.87;102390.13;5091957;28;20017;-79
2023/06/04 07:35:36;;;;;;;0.00;0.00;;;;;;;18.01;48.18;102395.28;5090448;28;20029;-78
2023/06/04 07:38:03;;;;;;;0.25;0.25;;;;;;;18.10;48.17;102397.69;5092853;28;20044;-79
2023/06/04 07:40:29;;;;;;;0.00;0.00;;;;;;;18.19;47.10;102385.84;5098317;28;20043;-77
2023/06/04 07:42:55;;;;;;;0.00;0.00;;;;;;;18.29;47.74;102393.66;5100192;28;20410;-78
2023/06/04 07:45:21;;;;;;;0.10;0.10;;;;;;;18.38;47.56;102383.53;5107444;28;20032;-77
2023/06/04 07:47:47;;;;;;;0.00;0.00;;;;;;;18.46;46.43;102382.44;5107945;28;20393;-76
2023/06/04 07:50:14;;;;;;;0.00;0.00;;;;;;;18.53;47.13;102375.97;5100539;28;20027;-76
2023/06/04 07:52:40;;;;;;;0.68;0.68;;;;;;;18.62;47.24;102375.69;5105857;28;20235;-78
2023/06/04 07:55:08;;;;;;;0.00;0.00;;;;;;;18.70;46.30;102383.53;5115880;28;20058;-77
2023/06/04 07:57:34;;;;;;;0.10;0.10;;;;;;;18.76;46.51;102378.84;5125364;28;20047;-77
2023/06/04 08:00:03;;;;;;;0.10;0.10;;;;;;;18.87;45.70;102383.03;5131113;28;20042;-75
2023/06/04 08:02:30;;;;;;;0.00;0.00;;;;;;;18.90;44.06;102381.16;5099571;28;20391;-78
2023/06/04 08:04:56;;;;;;;0.00;0.00;;;;;;;19.04;45.32;102378.03;5092343;28;20054;-78
2023/06/04 08:07:22;;;;;;;0.10;0.10;;;;;;;19.13;44.86;102381.34;5087176;28;20036;-80
2023/06/04 08:09:49;;;;;;;0.10;0.10;;;;;;;19.27;45.48;102386.31;5085431;28;20123;-78
2023/06/04 08:12:16;;;;;;;0.00;0.00;;;;;;;19.38;45.01;102387.72;5093786;28;20048;-80
2023/06/04 08:14:42;;;;;;;0.40;0.40;;;;;;;19.49;44.35;102382.00;5089440;28;20037;-78
2023/06/04 08:17:08;;;;;;;0.10;0.10;;;;;;;19.57;44.28;102389.78;5094287;28;20020;-78
2023/06/04 08:19:34;;;;;;;0.08;0.08;;;;;;;19.63;44.00;102386.91;5090980;28;20040;-78
2023/06/04 08:22:01;;;;;;;0.00;0.00;;;;;;;19.68;44.20;102379.56;5088686;28;20048;-78
2023/06/04 08:24:27;;;;;;;0.03;0.03;;;;;;;19.78;43.25;102395.38;5089304;28;20563;-75
2023/06/04 08:26:53;;;;;;;0.08;0.08;;;;;;;19.87;42.83;102387.03;5092762;28;20071;-75
2023/06/04 08:29:19;;;;;;;0.10;0.10;;;;;;;19.92;43.33;102376.97;5096331;28;20108;-76
2023/06/04 08:31:46;;;;;;;0.03;0.03;;;;;;;19.94;40.96;102385.88;5098585;28;20039;-77
2023/06/04 08:34:12;;;;;;;0.25;0.25;;;;;;;20.07;42.23;102388.16;5103561;28;20027;-75
2023/06/04 08:36:38;;;;;;;2.22;1.35;;;;;;;20.15;42.96;102392.31;5090430;28;20031;-77
2023/06/04 08:39:05;;;;;;;0.10;0.10;;;;;;;20.27;42.39;102388.28;5104892;28;20028;-78
2023/06/04 08:41:51;;;;;;;0.10;0.10;;;;;;;20.40;42.50;102383.34;5101807;28;20572;-77
2023/06/04 08:44:17;;;;;;;0.13;0.13;;;;;;;20.42;41.68;102386.84;5092124;28;20052;-78
2023/06/04 08:46:44;;;;;;;0.80;0.80;;;;;;;20.56;42.35;102401.63;5077945;28;20394;-76
2023/06/04 08:49:12;;;;;;;0.00;0.00;;;;;;;20.66;42.01;102389.56;5085862;28;20039;-78
2023/06/04 08:51:40;;;;;;;0.10;0.10;;;;;;;20.77;42.52;102399.97;5102861;28;20032;-79
2023/06/04 08:54:07;;;;;;;0.10;0.10;;;;;;;20.84;42.06;102393.41;5083712;28;20085;-76
2023/06/04 08:56:34;;;;;;;0.15;0.15;;;;;;;20.86;41.85;102396.94;5089719;28;20032;-78
2023/06/04 08:59:03;;;;;;;0.10;0.10;;;;;;;20.94;41.90;102389.41;5108255;28;20034;-78
2023/06/04 09:01:32;;;;;;;0.00;0.00;;;;;;;21.03;41.90;102392.69;5081525;28;20032;-78
2023/06/04 09:04:04;;;;;;;0.00;0.00;;;;;;;21.17;42.28;102385.81;5082008;28;20529;-77
2023/06/04 09:06:33;;;;;;;0.08;0.08;;;;;;;21.32;41.85;102392.41;5080276;28;20048;-78
2023/06/04 09:09:05;;;;;;;0.00;0.00;;;;;;;21.42;41.95;102384.81;5084219;28;20479;-76
2023/06/04 09:11:36;;;;;;;0.00;0.00;;;;;;;21.56;42.06;102389.66;5083031;28;20031;-79
2023/06/04 09:14:08;;;;;;;0.00;0.00;;;;;;;21.61;40.83;102392.16;5085721;28;20031;-78
2023/06/04 09:19:21;;;;;;;0.10;0.10;;;;;;;21.58;40.26;102389.59;5104876;27;20416;-78
2023/06/04 09:24:39;;;;;;;0.10;0.10;;;;;;;21.76;41.92;102393.34;5092258;27;20408;-76
2023/06/04 09:27:14;;;;;;;0.00;0.00;;;;;;;21.89;41.94;102396.38;5090715;28;20037;-77
2023/06/04 09:29:50;;;;;;;0.10;0.10;;;;;;;21.94;42.13;102387.16;5090584;28;20045;-79
2023/06/04 09:32:22;;;;;;;0.10;0.10;;;;;;;22.08;42.53;102391.03;5086542;28;20024;-78
2023/06/04 09:34:49;;;;;;;0.10;0.10;;;;;;;22.18;41.67;102394.22;5092352;28;20028;-75
2023/06/04 09:37:17;;;;;;;0.10;0.10;;;;;;;22.23;41.20;102401.19;5093982;28;20036;-79
2023/06/04 09:40:05;;;;;;;0.10;0.10;;;;;;;22.32;42.32;102394.50;5103177;28;20117;-78
2023/06/04 09:42:41;;;;;;;0.10;0.10;;;;;;;22.39;41.28;102405.91;5099839;28;20089;-77
2023/06/04 09:45:08;;;;;;;0.00;0.00;;;;;;;22.51;41.04;102401.78;5097765;28;20063;-77
2023/06/04 09:47:42;;;;;;;0.05;0.05;;;;;;;22.67;40.81;102397.44;5098241;28;20036;-79
2023/06/04 09:50:10;;;;;;;0.10;0.10;;;;;;;22.74;40.56;102392.59;5097515;28;20024;-78
2023/06/04 09:52:37;;;;;;;0.00;0.00;;;;;;;22.82;41.29;102398.53;5092221;28;20088;-78
2023/06/04 09:55:04;;;;;;;0.10;0.10;;;;;;;22.90;41.57;102393.66;5090547;28;20032;-77
2023/06/04 09:57:31;;;;;;;0.10;0.10;;;;;;;22.98;41.27;102395.97;5088814;28;20028;-76
2023/06/04 09:59:59;;;;;;;0.10;0.10;;;;;;;23.06;41.41;102393.75;5080376;28;20050;-76
2023/06/04 10:02:29;;;;;;;0.10;0.10;;;;;;;23.15;41.42;102397.84;5088082;28;20012;-77
2023/06/04 10:04:57;;;;;;;0.00;0.00;;;;;;;23.25;39.57;102396.50;5086469;28;20085;-76
2023/06/04 10:07:25;;;;;;;0.10;0.10;;;;;;;23.35;40.75;102393.31;5086619;28;20060;-76
2023/06/04 10:09:53;;;;;;;0.00;0.00;;;;;;;23.34;39.90;102402.38;5090669;28;20024;-78
2023/06/04 10:12:28;;;;;;;0.00;0.00;;;;;;;23.40;40.30;102393.97;5093621;28;20083;-78
2023/06/04 10:15:01;;;;;;;0.10;0.10;;;;;;;23.39;39.69;102392.22;5102319;28;20008;-78
2023/06/04 10:17:28;;;;;;;0.00;0.00;;;;;;;23.42;38.76;102389.38;5095275;28;20039;-78
2023/06/04 10:19:56;;;;;;;0.10;0.10;;;;;;;23.46;39.82;102396.38;5091413;28;20039;-78
2023/06/04 10:22:22;;;;;;;0.03;0.03;;;;;;;23.51;38.98;102390.75;5096344;28;20039;-78
2023/06/04 10:24:49;;;;;;;0.20;0.20;;;;;;;23.59;39.63;102391.25;5096166;28;20041;-79
2023/06/04 10:27:17;;;;;;;0.10;0.10;;;;;;;23.63;40.12;102386.53;5098332;28;20035;-77
2023/06/04 10:29:45;;;;;;;0.10;0.10;;;;;;;23.68;38.97;102396.16;5089030;28;20074;-78
2023/06/04 10:32:12;;;;;;;0.00;0.00;;;;;;;23.75;38.82;102380.47;5096117;28;20024;-78
2023/06/04 10:34:39;;;;;;;0.15;0.15;;;;;;;23.84;39.15;102384.53;5086755;28;20029;-79
2023/06/04 10:37:05;;;;;;;0.00;0.00;;;;;;;23.85;38.92;102389.91;5080464;28;20040;-78
2023/06/04 10:39:33;;;;;;;1.45;0.65;;;;;;;23.84;38.74;102390.84;5072493;28;20067;-78
2023/06/04 10:42:01;;;;;;;0.52;0.52;;;;;;;23.92;39.05;102392.31;5082715;28;20039;-79
2023/06/04 10:44:27;;;;;;;0.10;0.10;;;;;;;23.91;39.07;102388.69;5082030;28;20673;-79
2023/06/04 10:46:53;;;;;;;0.10;0.10;;;;;;;23.94;39.70;102396.69;5069050;28;20506;-76
2023/06/04 10:49:28;;;;;;;0.05;0.05;;;;;;;24.01;38.90;102386.41;5073642;28;20024;-77
2023/06/04 10:52:03;;;;;;;0.10;0.10;;;;;;;24.10;38.66;102385.03;5070634;28;20513;-76
2023/06/04 10:54:29;;;;;;;0.10;0.10;;;;;;;24.11;38.25;102386.81;5063896;28;20040;-78
2023/06/04 10:56:56;;;;;;;0.20;0.20;;;;;;;24.11;38.91;102389.50;5073181;28;20039;-77
2023/06/04 10:59:24;;;;;;;0.10;0.10;;;;;;;24.18;39.15;102385.53;5072425;28;20040;-76
2023/06/04 11:01:50;;;;;;;0.10;0.10;;;;;;;24.26;37.53;102387.81;5074874;28;20025;-78
2023/06/04 11:04:25;;;;;;;0.10;0.10;;;;;;;24.38;38.44;102389.88;5076189;28;20028;-78
2023/06/04 11:07:11;;;;;;;0.20;0.20;;;;;;;24.42;37.81;102390.59;5083315;28;20102;-78
2023/06/04 11:09:48;;;;;;;0.10;0.10;;;;;;;24.34;36.61;102388.28;5087948;28;20138;-79
2023/06/04 11:12:14;;;;;;;0.00;0.00;;;;;;;24.44;37.66;102386.81;5075736;28;20103;-77
2023/06/04 11:14:40;;;;;;;0.10;0.10;;;;;;;24.42;39.04;102390.59;5081599;28;20047;-79
2023/06/04 11:17:14;;;;;;;0.10;0.10;;;;;;;24.61;37.27;102390.44;5084073;28;20120;-80
2023/06/04 11:19:40;;;;;;;0.43;0.30;;;;;;;24.73;38.26;102394.34;5089742;28;20029;-77
2023/06/04 11:22:12;;;;;;;0.10;0.10;;;;;;;24.78;37.09;102387.69;5082082;28;20020;-79
2023/06/04 11:24:39;;;;;;;0.10;0.10;;;;;;;24.84;37.49;102383.78;5081096;28;20037;-78
2023/06/04 11:27:05;;;;;;;1.15;1.05;;;;;;;24.89;36.13;102380.81;5083126;28;20024;-78
2023/06/04 11:29:32;;;;;;;0.00;0.00;;;;;;;24.90;36.02;102386.16;5095747;28;20109;-79
2023/06/04 11:31:58;;;;;;;0.03;0.03;;;;;;;24.85;35.86;102378.25;5094562;28;20028;-76
2023/06/04 11:34:27;;;;;;;0.10;0.10;;;;;;;24.91;36.99;102371.63;5084790;28;20028;-77